Time;durP1;ratioP1;P1;durP2;ratioP2;P2;SDS_P1;SDS_P2;PMS_P1;PMS_P2;Temp;Humidity;BMP_temperature;BMP_pressure;BME280_temperature;BME280_humidity;BME280_pressure;Samples;Min_cycle;Max_cycle;Signal;HPM_P1;HPM_P2
2022/10/31 00:01:30;;;;;;;4.03;3.40;;;15.90;99.90;;;;;;5048586;28;20769;-77
2022/10/31 00:03:57;;;;;;;8.10;3.23;;;16.00;99.90;;;;;;5063077;28;20194;-76
2022/10/31 00:06:24;;;;;;;3.97;3.10;;;16.00;99.90;;;;;;5061815;28;20474;-76
2022/10/31 00:08:59;;;;;;;5.73;3.67;;;16.00;99.90;;;;;;5062382;28;20236;-76
2022/10/31 00:11:26;;;;;;;7.20;3.10;;;16.00;99.90;;;;;;5047903;28;20604;-76
2022/10/31 00:13:53;;;;;;;4.50;3.57;;;16.00;99.90;;;;;;5052477;28;20212;-76
2022/10/31 00:16:23;;;;;;;4.90;3.30;;;16.00;99.90;;;;;;5061456;28;20521;-76
2022/10/31 00:18:59;;;;;;;5.70;3.47;;;16.00;99.90;;;;;;5067442;28;20209;-76
2022/10/31 00:21:29;;;;;;;6.07;3.20;;;15.90;99.90;;;;;;5063233;28;20196;-76
2022/10/31 00:23:58;;;;;;;4.53;2.97;;;15.90;99.90;;;;;;5080813;28;20194;-76
2022/10/31 00:26:27;;;;;;;6.37;2.90;;;15.90;99.90;;;;;;5079924;28;20178;-77
2022/10/31 00:28:53;;;;;;;5.73;3.27;;;15.90;99.90;;;;;;5049898;28;20700;-76
2022/10/31 00:31:20;;;;;;;4.13;2.77;;;16.00;99.90;;;;;;5060487;28;20209;-77
2022/10/31 00:33:47;;;;;;;6.60;3.50;;;16.00;99.90;;;;;;5057656;28;20182;-76
2022/10/31 00:36:18;;;;;;;3.97;3.20;;;16.00;99.90;;;;;;5073722;28;20183;-76
2022/10/31 00:38:46;;;;;;;5.73;3.10;;;15.90;99.90;;;;;;5050793;28;20186;-76
2022/10/31 00:41:16;;;;;;;5.90;3.50;;;15.90;99.90;;;;;;5062382;28;20941;-77
2022/10/31 00:43:45;;;;;;;8.80;3.57;;;15.90;99.90;;;;;;5080804;28;20186;-76
2022/10/31 00:46:13;;;;;;;6.00;3.07;;;15.90;99.90;;;;;;5069153;28;20192;-77
2022/10/31 00:48:39;;;;;;;4.60;3.07;;;15.90;99.90;;;;;;5079915;28;20312;-77
2022/10/31 00:51:07;;;;;;;4.50;3.27;;;15.90;99.90;;;;;;5064351;28;20196;-76
2022/10/31 00:53:33;;;;;;;5.40;3.20;;;15.80;99.90;;;;;;5052518;28;20190;-76
2022/10/31 00:56:01;;;;;;;6.43;3.17;;;15.80;99.90;;;;;;5067371;28;20655;-77
2022/10/31 00:58:27;;;;;;;6.43;3.13;;;15.80;99.90;;;;;;5059304;28;20280;-76
2022/10/31 01:00:54;;;;;;;8.43;3.33;;;15.80;99.90;;;;;;5058227;28;20220;-76
2022/10/31 01:03:26;;;;;;;5.47;3.20;;;15.80;99.90;;;;;;5047920;28;20202;-77
2022/10/31 01:06:11;;;;;;;5.10;3.40;;;15.80;99.90;;;;;;5078265;28;20619;-76
2022/10/31 01:08:39;;;;;;;5.83;3.10;;;15.80;99.90;;;;;;5039513;28;20327;-76
2022/10/31 01:11:14;;;;;;;6.57;3.10;;;15.80;99.90;;;;;;5069700;28;20776;-76
2022/10/31 01:13:41;;;;;;;8.50;3.07;;;15.80;99.90;;;;;;5080045;28;20202;-76
2022/10/31 01:16:11;;;;;;;4.97;3.80;;;15.80;99.90;;;;;;5071208;28;20209;-76
2022/10/31 01:18:38;;;;;;;6.63;3.20;;;15.80;99.90;;;;;;5066116;28;20201;-76
2022/10/31 01:21:12;;;;;;;7.70;3.10;;;15.80;99.90;;;;;;5052900;28;20598;-77
2022/10/31 01:23:39;;;;;;;6.27;3.40;;;15.80;99.90;;;;;;5050560;28;20598;-76
2022/10/31 01:26:14;;;;;;;5.50;2.87;;;15.70;99.90;;;;;;5056035;28;20718;-76
2022/10/31 01:29:04;;;;;;;7.07;3.43;;;15.80;99.90;;;;;;5050824;28;20242;-76
2022/10/31 01:31:35;;;;;;;4.33;2.83;;;15.80;99.90;;;;;;5079973;28;20688;-77
2022/10/31 01:34:02;;;;;;;7.17;3.27;;;15.80;99.90;;;;;;5069356;28;20178;-76
2022/10/31 01:36:32;;;;;;;7.53;3.57;;;15.80;99.90;;;;;;5054626;28;20193;-76
2022/10/31 01:39:06;;;;;;;6.13;3.20;;;15.80;99.90;;;;;;5062928;28;20709;-76
2022/10/31 01:41:36;;;;;;;5.87;3.40;;;15.80;99.90;;;;;;5049164;28;20181;-76
2022/10/31 01:44:13;;;;;;;4.87;3.50;;;15.80;99.90;;;;;;5084763;28;20197;-76
2022/10/31 01:46:44;;;;;;;8.17;3.57;;;15.80;99.90;;;;;;5071196;28;20182;-76
2022/10/31 01:49:37;;;;;;;4.17;2.90;;;15.80;99.90;;;;;;5083260;28;20190;-77
2022/10/31 01:52:13;;;;;;;6.87;3.43;;;15.80;99.90;;;;;;5051237;28;20714;-76
2022/10/31 01:54:53;;;;;;;6.40;3.23;;;15.80;99.90;;;;;;5068831;28;20186;-76
2022/10/31 01:57:22;;;;;;;4.23;3.10;;;15.70;99.90;;;;;;5079998;28;20182;-76
2022/10/31 01:59:58;;;;;;;4.50;2.90;;;15.70;99.90;;;;;;5065260;28;20257;-76
2022/10/31 02:02:28;;;;;;;11.23;3.37;;;15.70;99.90;;;;;;5063572;28;20665;-76
2022/10/31 02:04:56;;;;;;;5.23;3.33;;;15.70;99.90;;;;;;5065666;28;20927;-76
2022/10/31 02:07:51;;;;;;;7.70;3.50;;;15.70;99.90;;;;;;5050272;28;20891;-76
2022/10/31 02:10:21;;;;;;;8.30;4.03;;;15.70;99.90;;;;;;5081771;28;20256;-77
2022/10/31 02:12:53;;;;;;;4.43;3.07;;;15.70;99.90;;;;;;5084422;28;20197;-76
2022/10/31 02:15:20;;;;;;;6.37;3.47;;;15.80;99.90;;;;;;5064072;28;20197;-76
2022/10/31 02:17:47;;;;;;;6.60;3.30;;;15.80;99.90;;;;;;5073077;28;20201;-76
2022/10/31 02:20:23;;;;;;;5.80;3.60;;;15.80;99.90;;;;;;5060022;28;20264;-76
2022/10/31 02:23:31;;;;;;;5.10;3.60;;;15.80;99.90;;;;;;5074466;28;20276;-76
2022/10/31 02:26:19;;;;;;;5.37;3.23;;;15.80;99.90;;;;;;5077764;28;20193;-77
2022/10/31 02:29:20;;;;;;;5.63;2.97;;;15.90;99.90;;;;;;5055484;28;20249;-76
2022/10/31 02:32:17;;;;;;;5.00;3.43;;;15.90;99.90;;;;;;5084372;28;20182;-76
2022/10/31 02:35:28;;;;;;;5.43;3.43;;;15.90;99.90;;;;;;5081993;28;20194;-77
2022/10/31 02:38:22;;;;;;;5.90;3.60;;;15.90;99.90;;;;;;5066532;28;20641;-77
2022/10/31 02:41:05;;;;;;;4.93;3.17;;;15.90;99.90;;;;;;5064139;28;20209;-76
2022/10/31 02:43:58;;;;;;;9.20;3.20;;;15.90;99.90;;;;;;5081310;28;21894;-77
2022/10/31 02:46:37;;;;;;;4.33;3.27;;;15.80;99.90;;;;;;5063695;28;20182;-76
2022/10/31 02:49:16;;;;;;;6.73;3.30;;;15.80;99.90;;;;;;5049690;28;20789;-77
2022/10/31 02:51:45;;;;;;;5.80;3.50;;;15.80;99.90;;;;;;5077490;28;20195;-76
2022/10/31 02:54:25;;;;;;;4.70;2.80;;;15.70;99.90;;;;;;5074454;28;20198;-77
2022/10/31 02:57:06;;;;;;;4.77;2.90;;;15.70;99.90;;;;;;5066828;28;20190;-77
2022/10/31 02:59:36;;;;;;;6.60;3.43;;;15.70;99.90;;;;;;5054750;28;20352;-77
2022/10/31 03:02:49;;;;;;;4.60;3.10;;;15.70;99.90;;;;;;5085967;28;20659;-77
2022/10/31 03:06:12;;;;;;;3.40;2.83;;;15.70;99.90;;;;;;5074939;28;20833;-77
2022/10/31 03:09:42;;;;;;;4.07;3.00;;;15.70;99.90;;;;;;5060776;28;20195;-77
2022/10/31 03:12:22;;;;;;;7.17;3.60;;;15.70;99.90;;;;;;5061099;28;20228;-76
2022/10/31 03:14:59;;;;;;;5.97;3.23;;;15.70;99.90;;;;;;5065472;28;20304;-76
2022/10/31 03:17:37;;;;;;;4.23;2.93;;;15.70;99.90;;;;;;5077374;28;20204;-77
2022/10/31 03:20:08;;;;;;;5.73;3.17;;;15.70;99.90;;;;;;5056430;28;20210;-77
2022/10/31 03:22:40;;;;;;;4.20;3.10;;;15.70;99.90;;;;;;5055891;28;20591;-77
2022/10/31 03:25:09;;;;;;;6.10;3.00;;;15.80;99.90;;;;;;5068654;28;20232;-77
2022/10/31 03:27:40;;;;;;;7.03;3.53;;;15.70;99.90;;;;;;5085864;28;20939;-77
2022/10/31 03:30:08;;;;;;;7.00;3.40;;;15.70;99.90;;;;;;5068292;28;20231;-77
2022/10/31 03:32:51;;;;;;;5.23;3.20;;;15.70;99.90;;;;;;5059259;28;20278;-77
2022/10/31 03:35:23;;;;;;;3.97;3.00;;;15.80;99.90;;;;;;5078585;28;20251;-77
2022/10/31 03:37:54;;;;;;;6.50;3.23;;;15.80;99.90;;;;;;5048793;28;20197;-77
2022/10/31 03:40:24;;;;;;;6.70;3.30;;;15.80;99.90;;;;;;5065610;28;20198;-76
2022/10/31 03:43:07;;;;;;;5.40;3.03;;;15.80;99.90;;;;;;5064022;28;20244;-76
2022/10/31 03:45:43;;;;;;;6.10;3.40;;;15.80;99.90;;;;;;5062773;28;20578;-77
2022/10/31 03:48:10;;;;;;;9.47;3.27;;;15.80;99.90;;;;;;5051769;28;20186;-76
2022/10/31 03:51:22;;;;;;;3.40;3.00;;;15.80;99.90;;;;;;5068399;28;20191;-77
2022/10/31 03:54:07;;;;;;;6.93;3.40;;;15.80;99.90;;;;;;5067708;28;20250;-77
2022/10/31 03:56:53;;;;;;;5.40;3.30;;;15.80;99.90;;;;;;5062471;28;20208;-77
2022/10/31 03:59:32;;;;;;;5.00;3.10;;;15.80;99.90;;;;;;5036165;28;20182;-77
2022/10/31 04:02:07;;;;;;;5.87;2.93;;;15.80;99.90;;;;;;5056491;28;20260;-77
2022/10/31 04:04:36;;;;;;;5.60;3.10;;;15.80;99.90;;;;;;5048446;28;20661;-77
2022/10/31 04:07:06;;;;;;;6.30;3.13;;;15.80;99.90;;;;;;5068183;28;20221;-77
2022/10/31 04:09:39;;;;;;;6.13;3.13;;;15.80;99.90;;;;;;5067206;28;20639;-76
2022/10/31 04:12:11;;;;;;;5.30;3.00;;;15.80;99.90;;;;;;5074562;28;20729;-77
2022/10/31 04:14:41;;;;;;;6.07;3.17;;;15.80;99.90;;;;;;5060250;28;20247;-77
2022/10/31 04:17:14;;;;;;;5.17;3.23;;;15.80;99.90;;;;;;5066233;28;20191;-76
2022/10/31 04:19:40;;;;;;;4.80;3.20;;;15.80;99.90;;;;;;5049987;28;20255;-77
2022/10/31 04:22:06;;;;;;;3.27;2.90;;;15.80;99.90;;;;;;5049653;28;20195;-77
2022/10/31 04:24:33;;;;;;;6.13;3.07;;;15.80;99.90;;;;;;5056967;28;20187;-77
2022/10/31 04:26:59;;;;;;;5.57;3.13;;;15.80;99.90;;;;;;5075228;28;20186;-77
2022/10/31 04:29:25;;;;;;;3.90;3.00;;;15.80;99.90;;;;;;5062383;28;20188;-77
2022/10/31 04:31:51;;;;;;;9.03;3.27;;;15.80;99.90;;;;;;5051225;28;20273;-77
2022/10/31 04:34:17;;;;;;;4.93;3.13;;;15.80;99.90;;;;;;5046000;28;20782;-77
2022/10/31 04:36:44;;;;;;;3.60;3.23;;;15.80;99.90;;;;;;5063921;28;20186;-77
2022/10/31 04:39:10;;;;;;;5.70;3.13;;;15.80;99.90;;;;;;5063025;28;20182;-77
2022/10/31 04:41:36;;;;;;;3.20;2.90;;;15.90;99.90;;;;;;5059292;28;20182;-77
2022/10/31 04:44:03;;;;;;;6.43;3.23;;;15.90;99.90;;;;;;5060178;28;20186;-77
2022/10/31 04:46:29;;;;;;;7.40;3.50;;;15.90;99.90;;;;;;5081906;28;20190;-76
2022/10/31 04:48:56;;;;;;;5.17;3.37;;;15.90;99.90;;;;;;5065555;28;20229;-77
2022/10/31 04:51:22;;;;;;;8.20;3.23;;;15.90;99.90;;;;;;5065717;28;20189;-77
2022/10/31 04:53:49;;;;;;;4.60;3.33;;;15.90;99.90;;;;;;5064201;28;20301;-77
2022/10/31 04:56:15;;;;;;;6.27;3.33;;;15.90;99.90;;;;;;5061246;28;20277;-77
2022/10/31 04:58:41;;;;;;;6.90;3.70;;;16.00;99.90;;;;;;5060713;28;20195;-77
2022/10/31 05:01:08;;;;;;;7.07;3.70;;;16.00;99.90;;;;;;5062304;28;20571;-76
2022/10/31 05:03:34;;;;;;;9.63;3.63;;;16.00;99.90;;;;;;5069948;28;20282;-77
2022/10/31 05:06:00;;;;;;;5.63;3.57;;;15.90;99.90;;;;;;5069647;28;20186;-76
2022/10/31 05:08:27;;;;;;;5.73;3.40;;;15.90;99.90;;;;;;5067236;28;20655;-77
2022/10/31 05:10:53;;;;;;;4.77;3.47;;;15.90;99.90;;;;;;5074237;28;20205;-77
2022/10/31 05:13:22;;;;;;;4.43;3.30;;;15.90;99.90;;;;;;5061678;28;20995;-77
2022/10/31 05:15:52;;;;;;;6.67;3.60;;;15.90;99.90;;;;;;5070061;28;20187;-77
2022/10/31 05:18:19;;;;;;;10.50;3.73;;;15.90;99.90;;;;;;5074207;28;20203;-77
2022/10/31 05:20:45;;;;;;;10.13;3.40;;;15.90;99.90;;;;;;5063040;28;20206;-77
2022/10/31 05:23:11;;;;;;;4.67;3.17;;;15.90;99.90;;;;;;5064447;28;20197;-77
2022/10/31 05:25:39;;;;;;;6.00;3.67;;;15.90;99.90;;;;;;5074731;28;20989;-77
2022/10/31 05:28:06;;;;;;;5.53;3.03;;;16.00;99.90;;;;;;5077968;28;20267;-77
2022/10/31 05:30:34;;;;;;;5.87;3.10;;;16.00;99.90;;;;;;5054649;28;20545;-77
2022/10/31 05:33:00;;;;;;;5.33;3.30;;;16.00;99.90;;;;;;5073554;28;20276;-77
2022/10/31 05:35:31;;;;;;;8.00;3.50;;;16.10;99.90;;;;;;5047689;28;20190;-77
2022/10/31 05:37:58;;;;;;;6.00;3.27;;;16.10;99.90;;;;;;5061775;28;20984;-76
2022/10/31 05:40:27;;;;;;;7.37;3.23;;;16.10;99.90;;;;;;5054302;28;20210;-76
2022/10/31 05:42:56;;;;;;;8.97;3.40;;;16.20;99.90;;;;;;5067206;28;20191;-77
2022/10/31 05:45:25;;;;;;;6.67;3.57;;;16.20;99.90;;;;;;5058506;28;20194;-77
2022/10/31 05:48:00;;;;;;;5.83;3.40;;;16.30;99.90;;;;;;5051493;28;20182;-77
2022/10/31 05:50:30;;;;;;;5.60;3.60;;;16.30;99.90;;;;;;5046830;28;20938;-76
2022/10/31 05:53:05;;;;;;;9.83;3.47;;;16.40;99.90;;;;;;5057246;28;20519;-77
2022/10/31 05:55:32;;;;;;;5.87;3.00;;;16.40;99.90;;;;;;5038715;28;20194;-77
2022/10/31 05:57:58;;;;;;;7.97;4.17;;;16.50;99.90;;;;;;5063890;28;20218;-77
2022/10/31 06:00:26;;;;;;;5.63;3.30;;;16.50;99.90;;;;;;5083554;28;20656;-76
2022/10/31 06:03:08;;;;;;;6.97;2.90;;;16.50;99.90;;;;;;5058654;28;20234;-77
2022/10/31 06:05:35;;;;;;;8.50;3.70;;;16.60;99.90;;;;;;5040451;28;20276;-76
2022/10/31 06:08:02;;;;;;;3.80;3.20;;;16.60;99.90;;;;;;5076918;28;20205;-77
2022/10/31 06:10:29;;;;;;;4.20;3.50;;;16.60;99.90;;;;;;5055485;28;20567;-77
2022/10/31 06:12:55;;;;;;;5.73;3.20;;;16.70;99.90;;;;;;5077054;28;20195;-76
2022/10/31 06:15:22;;;;;;;5.90;3.20;;;16.70;99.90;;;;;;5085232;28;20193;-77
2022/10/31 06:17:58;;;;;;;5.53;3.20;;;16.70;99.90;;;;;;5059129;28;20194;-77
2022/10/31 06:20:26;;;;;;;4.80;2.80;;;16.70;99.90;;;;;;5063512;28;20312;-77
2022/10/31 06:22:52;;;;;;;5.17;2.60;;;16.80;99.90;;;;;;5082242;28;20194;-77
2022/10/31 06:25:19;;;;;;;6.27;3.30;;;16.90;99.90;;;;;;5077932;28;20214;-77
2022/10/31 06:27:45;;;;;;;7.03;3.37;;;16.90;99.90;;;;;;5065872;28;20282;-76
2022/10/31 06:30:12;;;;;;;6.90;3.10;;;16.90;99.90;;;;;;5080467;28;20664;-77
2022/10/31 06:32:42;;;;;;;7.90;3.23;;;17.00;99.90;;;;;;5061599;28;20244;-76
2022/10/31 06:35:10;;;;;;;5.27;2.87;;;17.10;99.90;;;;;;5051363;28;20250;-77
2022/10/31 06:37:37;;;;;;;11.20;3.47;;;17.10;99.90;;;;;;5063588;28;20189;-77
2022/10/31 06:40:04;;;;;;;5.77;3.10;;;17.20;99.90;;;;;;5077126;28;20571;-76
2022/10/31 06:42:31;;;;;;;7.20;3.13;;;17.20;99.90;;;;;;5050362;28;20265;-77
2022/10/31 06:44:57;;;;;;;6.93;3.50;;;17.30;99.90;;;;;;5056081;28;20239;-77
2022/10/31 06:47:23;;;;;;;7.67;3.53;;;17.30;99.90;;;;;;5071664;28;20194;-77
2022/10/31 06:49:49;;;;;;;5.60;3.00;;;17.40;99.90;;;;;;5060241;28;20297;-77
2022/10/31 06:52:16;;;;;;;7.20;3.07;;;17.40;99.90;;;;;;5071877;28;20259;-77
2022/10/31 06:54:42;;;;;;;5.00;3.00;;;17.50;99.90;;;;;;5041024;28;20186;-77
2022/10/31 06:57:09;;;;;;;4.27;2.70;;;17.50;99.90;;;;;;5065055;28;20240;-77
2022/10/31 06:59:36;;;;;;;7.33;3.27;;;17.50;99.90;;;;;;5072598;28;20703;-77
2022/10/31 07:02:03;;;;;;;5.27;2.83;;;17.50;99.90;;;;;;5074359;28;20875;-77
2022/10/31 07:04:30;;;;;;;6.73;3.07;;;17.60;99.90;;;;;;5047118;28;20663;-77
2022/10/31 07:06:56;;;;;;;15.47;3.60;;;17.60;99.90;;;;;;5044175;28;20202;-77
2022/10/31 07:09:23;;;;;;;7.17;3.17;;;17.70;99.90;;;;;;5071638;28;20306;-76
2022/10/31 07:11:53;;;;;;;6.17;2.97;;;17.90;99.90;;;;;;5058584;28;20209;-77
2022/10/31 07:14:20;;;;;;;8.27;3.00;;;18.10;99.90;;;;;;5057589;28;20187;-77
2022/10/31 07:16:50;;;;;;;5.57;3.10;;;18.10;99.90;;;;;;5078699;28;20200;-77
2022/10/31 07:19:17;;;;;;;9.00;3.40;;;18.10;99.90;;;;;;5073822;28;20274;-77
2022/10/31 07:21:44;;;;;;;6.70;3.30;;;18.10;99.90;;;;;;5078295;28;20186;-77
2022/10/31 07:24:14;;;;;;;5.13;3.10;;;18.10;99.90;;;;;;5074473;28;20578;-77
2022/10/31 07:26:42;;;;;;;9.73;3.20;;;18.00;99.90;;;;;;5064983;28;20274;-77
2022/10/31 07:29:10;;;;;;;9.00;3.30;;;18.10;99.90;;;;;;5038028;28;20205;-77
2022/10/31 07:31:36;;;;;;;5.20;2.87;;;18.10;99.90;;;;;;5066522;28;20635;-77
2022/10/31 07:34:05;;;;;;;5.83;2.80;;;18.20;99.90;;;;;;5078316;28;20198;-77
2022/10/31 07:36:31;;;;;;;6.17;2.60;;;18.20;99.90;;;;;;5041322;28;20198;-77
2022/10/31 07:38:58;;;;;;;3.50;2.40;;;18.40;99.90;;;;;;5061253;28;20263;-77
2022/10/31 07:41:25;;;;;;;13.83;2.83;;;18.50;99.90;;;;;;5072332;28;20333;-77
2022/10/31 07:43:51;;;;;;;6.10;2.80;;;18.60;99.90;;;;;;5081546;28;20194;-77
2022/10/31 07:46:18;;;;;;;4.50;2.73;;;18.60;99.90;;;;;;5060948;28;20216;-77
2022/10/31 07:48:44;;;;;;;5.23;2.50;;;18.70;99.90;;;;;;5073806;28;20195;-77
2022/10/31 07:51:10;;;;;;;7.73;2.93;;;18.70;99.90;;;;;;5058213;28;20200;-77
2022/10/31 07:53:37;;;;;;;5.50;2.40;;;18.90;99.90;;;;;;5082112;28;20301;-77
2022/10/31 07:56:04;;;;;;;4.93;2.40;;;19.00;99.90;;;;;;5070813;28;20319;-77
2022/10/31 07:58:30;;;;;;;3.73;2.20;;;19.10;99.90;;;;;;5040990;28;20226;-77
2022/10/31 08:01:01;;;;;;;6.53;2.60;;;19.10;99.90;;;;;;5059062;28;20211;-77
2022/10/31 08:03:28;;;;;;;9.80;2.77;;;19.20;99.90;;;;;;5059436;28;20189;-77
2022/10/31 08:05:56;;;;;;;4.87;2.40;;;19.20;99.90;;;;;;5057995;28;21300;-77
2022/10/31 08:08:28;;;;;;;6.20;2.47;;;19.20;99.90;;;;;;5045731;28;20600;-77
2022/10/31 08:10:55;;;;;;;7.80;2.90;;;19.30;99.90;;;;;;5068570;28;20189;-77
2022/10/31 08:13:21;;;;;;;3.50;2.43;;;19.40;99.90;;;;;;5054560;28;20259;-77
2022/10/31 08:15:50;;;;;;;4.53;2.33;;;19.50;99.90;;;;;;5055264;28;20186;-76
2022/10/31 08:18:16;;;;;;;9.77;3.03;;;19.60;99.90;;;;;;5053022;28;20663;-77
2022/10/31 08:20:44;;;;;;;4.53;2.70;;;19.70;99.90;;;;;;5076782;28;20222;-77
2022/10/31 08:23:12;;;;;;;5.07;2.90;;;19.70;99.90;;;;;;5053503;28;20213;-77
2022/10/31 08:25:39;;;;;;;8.83;2.50;;;19.80;99.90;;;;;;5057241;28;20655;-76
2022/10/31 08:28:07;;;;;;;8.70;2.20;;;19.90;99.90;;;;;;5075770;28;20776;-76
2022/10/31 08:30:36;;;;;;;7.07;2.50;;;19.90;99.90;;;;;;5051270;28;20194;-77
2022/10/31 08:33:17;;;;;;;9.83;2.73;;;20.00;99.90;;;;;;5064872;28;20213;-76
2022/10/31 08:35:44;;;;;;;9.03;2.20;;;20.10;99.90;;;;;;5058671;28;20277;-77
2022/10/31 08:38:14;;;;;;;3.87;2.00;;;20.20;99.90;;;;;;5079095;28;20264;-77
2022/10/31 08:40:40;;;;;;;5.37;2.40;;;20.30;99.90;;;;;;5062040;28;20819;-77
2022/10/31 08:43:18;;;;;;;9.00;1.97;;;20.30;99.90;;;;;;5071225;28;20183;-76
2022/10/31 08:45:49;;;;;;;5.67;2.60;;;20.30;99.90;;;;;;5051962;28;20635;-76
2022/10/31 08:48:17;;;;;;;9.13;2.47;;;20.30;99.90;;;;;;5080590;28;20198;-77
2022/10/31 08:50:46;;;;;;;7.87;2.60;;;20.30;99.90;;;;;;5074134;28;20617;-77
2022/10/31 08:53:18;;;;;;;7.97;2.37;;;20.50;99.90;;;;;;5076529;28;20186;-77
2022/10/31 08:55:46;;;;;;;3.10;2.03;;;20.50;99.90;;;;;;5071900;28;20505;-77
2022/10/31 08:58:19;;;;;;;6.13;2.20;;;20.40;99.90;;;;;;5075390;28;20376;-76
2022/10/31 09:00:48;;;;;;;9.53;2.53;;;20.50;99.90;;;;;;5071903;28;20689;-77
2022/10/31 09:03:25;;;;;;;4.13;2.20;;;20.50;99.90;;;;;;5033751;28;20240;-76
2022/10/31 09:05:57;;;;;;;5.57;2.50;;;20.50;99.90;;;;;;5071253;28;20191;-77
2022/10/31 09:08:23;;;;;;;6.37;2.50;;;20.60;99.90;;;;;;5056459;28;20205;-76
2022/10/31 09:10:50;;;;;;;8.30;2.43;;;20.70;99.90;;;;;;5055080;28;20206;-77
2022/10/31 09:13:21;;;;;;;8.13;2.40;;;20.80;99.90;;;;;;5062337;28;20528;-77
2022/10/31 09:15:49;;;;;;;6.73;2.63;;;20.80;99.90;;;;;;5058883;28;20713;-77
2022/10/31 09:18:19;;;;;;;6.87;2.93;;;20.80;99.90;;;;;;5067688;28;20662;-76
2022/10/31 09:20:49;;;;;;;5.23;2.60;;;20.90;99.90;;;;;;5075816;28;20210;-76
2022/10/31 09:23:23;;;;;;;3.23;2.13;;;21.00;99.90;;;;;;5041334;28;20627;-76
2022/10/31 09:26:00;;;;;;;6.07;2.70;;;21.00;99.90;;;;;;5068428;28;20207;-76
2022/10/31 09:28:26;;;;;;;8.07;2.93;;;21.00;99.90;;;;;;5078047;28;20635;-76
2022/10/31 09:30:54;;;;;;;3.40;2.50;;;21.00;99.90;;;;;;5076285;28;20195;-76
2022/10/31 09:33:22;;;;;;;9.60;2.67;;;21.10;99.90;;;;;;5079808;28;20198;-77
2022/10/31 09:35:49;;;;;;;6.93;2.70;;;21.20;99.90;;;;;;5051819;28;20194;-76
2022/10/31 09:38:19;;;;;;;8.17;3.17;;;21.10;99.90;;;;;;5063710;28;20271;-76
2022/10/31 09:41:45;;;;;;;8.60;2.50;;;21.20;99.90;;;;;;5064102;28;20218;-76
2022/10/31 09:44:23;;;;;;;4.43;2.20;;;21.30;99.90;;;;;;5038927;28;20209;-76
2022/10/31 09:47:02;;;;;;;5.63;2.63;;;21.20;99.90;;;;;;5083210;28;20586;-77
2022/10/31 09:50:09;;;;;;;6.63;2.60;;;21.40;99.90;;;;;;5083067;28;20581;-76
2022/10/31 09:52:43;;;;;;;7.00;2.67;;;21.50;99.90;;;;;;5070777;28;20186;-77
2022/10/31 09:55:42;;;;;;;7.97;2.63;;;21.60;99.90;;;;;;5048863;28;20251;-77
2022/10/31 09:58:20;;;;;;;6.67;2.43;;;21.60;99.90;;;;;;5070863;28;20198;-76
2022/10/31 10:00:53;;;;;;;5.28;2.70;;;21.70;99.90;;;;;;5075693;28;20225;-77
2022/10/31 10:03:37;;;;;;;12.40;2.73;;;21.80;99.90;;;;;;5058088;28;20193;-77
2022/10/31 10:06:07;;;;;;;4.87;2.50;;;21.80;99.90;;;;;;5071911;28;20255;-77
2022/10/31 10:08:35;;;;;;;8.13;2.50;;;21.80;99.90;;;;;;5057671;28;20196;-77
2022/10/31 10:11:17;;;;;;;3.77;2.23;;;22.00;99.90;;;;;;5081125;28;20245;-77
2022/10/31 10:14:23;;;;;;;4.53;2.50;;;22.20;99.90;;;;;;5046352;28;20233;-77
2022/10/31 10:17:45;;;;;;;5.47;2.25;;;22.40;99.90;;;;;;5044396;28;20400;-77
2022/10/31 10:20:50;;;;;;;5.25;2.70;;;22.80;99.90;;;;;;5037183;28;20206;-77
2022/10/31 10:23:51;;;;;;;5.38;2.40;;;24.10;99.90;;;;;;5058980;28;20240;-77
2022/10/31 10:26:21;;;;;;;4.32;2.40;;;25.80;99.90;;;;;;5075362;28;20224;-77
2022/10/31 10:29:46;;;;;;;9.02;2.78;;;26.90;99.90;;;;;;5066968;28;20195;-77
2022/10/31 10:32:24;;;;;;;4.55;2.80;;;27.50;99.90;;;;;;5056240;28;20198;-77
2022/10/31 10:35:33;;;;;;;5.80;2.75;;;26.20;99.90;;;;;;5076943;28;20726;-77
2022/10/31 10:38:18;;;;;;;8.63;2.80;;;25.10;99.90;;;;;;5072605;28;20183;-77
2022/10/31 10:40:45;;;;;;;5.38;2.15;;;24.40;99.90;;;;;;5066295;28;20308;-77
2022/10/31 10:43:32;;;;;;;7.10;2.60;;;24.10;99.90;;;;;;5077781;28;20189;-77
2022/10/31 10:49:53;;;;;;;3.33;2.17;;;24.20;99.90;;;;;;5080971;28;20222;-77
2022/10/31 10:52:44;;;;;;;8.80;2.97;;;24.10;99.90;;;;;;5065357;28;20277;-77
2022/10/31 10:55:23;;;;;;;8.38;2.60;;;24.10;99.90;;;;;;5072310;28;20559;-77
2022/10/31 10:58:02;;;;;;;5.05;2.67;;;24.90;99.90;;;;;;5064120;28;20198;-77
2022/10/31 11:00:36;;;;;;;6.72;2.88;;;24.90;99.90;;;;;;5070322;28;20226;-77
2022/10/31 11:03:04;;;;;;;7.70;2.70;;;23.70;99.90;;;;;;5070183;28;20190;-77
2022/10/31 11:05:58;;;;;;;7.68;3.00;;;23.20;99.90;;;;;;5052703;28;20182;-77
2022/10/31 11:08:35;;;;;;;9.85;3.13;;;22.80;99.90;;;;;;5072134;28;20194;-77
2022/10/31 11:11:18;;;;;;;7.05;2.40;;;22.90;99.90;;;;;;5062991;28;20248;-77
2022/10/31 11:13:48;;;;;;;10.18;3.22;;;22.80;99.90;;;;;;5075646;28;20274;-78
2022/10/31 11:16:35;;;;;;;10.15;2.70;;;22.80;99.90;;;;;;5068907;28;20186;-77
2022/10/31 11:19:18;;;;;;;7.15;2.60;;;22.90;99.90;;;;;;5038903;28;20221;-77
2022/10/31 11:21:45;;;;;;;12.65;2.80;;;22.80;99.90;;;;;;5069044;28;20374;-77
2022/10/31 11:24:18;;;;;;;6.70;2.75;;;22.70;99.90;;;;;;5078213;28;21305;-77
2022/10/31 11:26:47;;;;;;;7.82;2.67;;;22.70;99.90;;;;;;5066184;28;20186;-77
2022/10/31 11:29:25;;;;;;;6.97;2.63;;;22.70;99.90;;;;;;5076171;28;20857;-77
2022/10/31 11:31:55;;;;;;;7.72;3.03;;;22.80;99.90;;;;;;5066556;28;20713;-77
2022/10/31 11:34:22;;;;;;;8.50;2.97;;;22.70;99.90;;;;;;5058890;28;20276;-77
2022/10/31 11:36:49;;;;;;;11.48;2.72;;;22.60;99.90;;;;;;5061634;28;20559;-77
2022/10/31 11:39:25;;;;;;;6.50;2.63;;;22.70;99.90;;;;;;5060754;28;20835;-77
2022/10/31 11:41:54;;;;;;;6.68;2.85;;;22.70;99.90;;;;;;5070143;28;20264;-77
2022/10/31 11:44:26;;;;;;;5.63;2.42;;;22.60;99.90;;;;;;5059656;28;20938;-77
2022/10/31 11:46:59;;;;;;;6.70;2.92;;;22.60;99.90;;;;;;5056453;28;20277;-77
2022/10/31 11:49:49;;;;;;;11.02;2.80;;;22.60;99.90;;;;;;5063883;28;20183;-77
2022/10/31 11:52:26;;;;;;;10.48;2.90;;;22.50;99.90;;;;;;5064640;28;20183;-77
2022/10/31 11:55:13;;;;;;;6.37;2.63;;;22.50;99.90;;;;;;5060504;28;20858;-77
2022/10/31 11:57:52;;;;;;;8.33;2.90;;;22.40;99.90;;;;;;5068572;28;20182;-77
2022/10/31 12:00:30;;;;;;;14.55;3.10;;;22.40;99.90;;;;;;5059175;28;20198;-77
2022/10/31 12:03:24;;;;;;;7.55;2.75;;;22.50;99.90;;;;;;5041912;28;20281;-77
2022/10/31 12:06:33;;;;;;;11.80;3.70;;;22.50;99.90;;;;;;5063440;28;21056;-77
2022/10/31 12:09:00;;;;;;;10.57;3.43;;;22.40;99.90;;;;;;4984478;28;20753;-77
2022/10/31 12:11:43;;;;;;;9.50;3.07;;;22.40;99.90;;;;;;4968094;28;20657;-77
2022/10/31 12:14:54;;;;;;;11.55;3.25;;;22.30;99.90;;;;;;5028388;28;20194;-77
2022/10/31 12:17:57;;;;;;;9.55;3.20;;;22.30;99.90;;;;;;5063096;28;20277;-77
2022/10/31 12:21:12;;;;;;;7.43;3.25;;;22.20;99.90;;;;;;5071452;28;20302;-78
2022/10/31 12:24:13;;;;;;;8.97;3.10;;;22.20;99.90;;;;;;5059649;28;20567;-77
2022/10/31 12:26:51;;;;;;;7.73;3.20;;;22.10;99.90;;;;;;5045022;28;20201;-78
2022/10/31 12:29:57;;;;;;;9.68;3.28;;;22.20;99.90;;;;;;5080742;28;20193;-77
2022/10/31 12:33:08;;;;;;;8.32;3.38;;;22.20;99.90;;;;;;5057998;28;20209;-77
2022/10/31 12:35:55;;;;;;;8.70;3.47;;;22.20;99.90;;;;;;5029329;28;20739;-76
2022/10/31 12:38:47;;;;;;;9.48;3.60;;;22.20;99.90;;;;;;5076249;28;20263;-77
2022/10/31 12:41:47;;;;;;;10.47;3.40;;;22.10;99.90;;;;;;5084315;28;20289;-77
2022/10/31 12:44:43;;;;;;;11.75;3.47;;;22.00;99.90;;;;;;5077803;28;20174;-77
2022/10/31 12:47:25;;;;;;;19.37;3.87;;;22.00;99.90;;;;;;5068702;28;20182;-77
2022/10/31 12:50:02;;;;;;;12.50;3.57;;;22.00;99.90;;;;;;5068518;28;20182;-77
2022/10/31 12:53:18;;;;;;;9.80;3.30;;;21.90;99.90;;;;;;5078288;28;20217;-77
2022/10/31 12:55:58;;;;;;;7.10;3.72;;;21.90;99.90;;;;;;5080895;28;20225;-77
2022/10/31 12:58:33;;;;;;;8.10;3.53;;;21.80;99.90;;;;;;5060757;28;20185;-77
2022/10/31 13:01:17;;;;;;;12.82;4.10;;;21.70;99.90;;;;;;5084165;28;20221;-77
2022/10/31 13:04:04;;;;;;;10.43;4.30;;;21.70;99.90;;;;;;5074219;28;20186;-77
2022/10/31 13:06:47;;;;;;;9.00;4.78;;;21.60;99.90;;;;;;5055632;28;20285;-77
2022/10/31 13:09:36;;;;;;;8.80;4.87;;;21.50;99.90;;;;;;5072006;28;20189;-78
2022/10/31 13:12:13;;;;;;;10.75;5.00;;;21.40;99.90;;;;;;5070212;28;20186;-77
2022/10/31 13:14:57;;;;;;;10.03;4.60;;;21.30;99.90;;;;;;5050371;28;20284;-77
2022/10/31 13:17:36;;;;;;;8.40;4.97;;;21.30;99.90;;;;;;5064313;28;20214;-77
2022/10/31 13:20:38;;;;;;;10.70;4.17;;;21.20;99.90;;;;;;5084584;28;20653;-77
2022/10/31 13:23:30;;;;;;;11.00;4.03;;;21.10;99.90;;;;;;5040155;28;20193;-77
2022/10/31 13:26:06;;;;;;;7.80;3.80;;;21.10;99.90;;;;;;5050031;28;20866;-77
2022/10/31 13:28:46;;;;;;;9.77;3.90;;;21.10;99.90;;;;;;5053967;28;20216;-77
2022/10/31 13:31:13;;;;;;;8.97;3.70;;;21.00;99.90;;;;;;5071106;28;20658;-77